Time;durP1;ratioP1;P1;durP2;ratioP2;P2;SDS_P1;SDS_P2;PMS_P1;PMS_P2;Temp;Humidity;BMP_temperature;BMP_pressure;BME280_temperature;BME280_humidity;BME280_pressure;Samples;Min_cycle;Max_cycle;Signal;HPM_P1;HPM_P2
2022/02/16 00:01:50;;;;;;;7.88;4.20;;;3.40;99.90;;;;;;4928509;29;20038;-75
2022/02/16 00:04:16;;;;;;;7.70;4.80;;;3.50;99.90;;;;;;4934585;29;20106;-74
2022/02/16 00:06:42;;;;;;;9.63;6.38;;;3.70;99.90;;;;;;4934422;29;20114;-74
2022/02/16 00:09:07;;;;;;;10.80;7.18;;;3.50;99.90;;;;;;4935456;29;20098;-75
2022/02/16 00:11:33;;;;;;;13.15;7.95;;;3.30;99.90;;;;;;4934910;29;20031;-74
2022/02/16 00:13:59;;;;;;;15.65;8.80;;;3.00;99.90;;;;;;4935942;29;20036;-74
2022/02/16 00:16:24;;;;;;;15.63;9.38;;;2.90;99.90;;;;;;4935199;29;20398;-74
2022/02/16 00:18:51;;;;;;;17.13;12.20;;;2.80;99.90;;;;;;4935676;29;20028;-74
2022/02/16 00:21:16;;;;;;;12.20;7.63;;;2.60;99.90;;;;;;4931287;29;20076;-75
2022/02/16 00:23:42;;;;;;;12.70;8.35;;;2.50;99.90;;;;;;4934965;29;20024;-74
2022/02/16 00:26:08;;;;;;;13.90;8.60;;;2.30;99.90;;;;;;4935216;29;20036;-75
2022/02/16 00:28:35;;;;;;;10.80;7.10;;;2.30;99.90;;;;;;4934844;29;20126;-74
2022/02/16 00:31:01;;;;;;;8.80;5.10;;;2.20;99.90;;;;;;4931809;29;20118;-74
2022/02/16 00:33:26;;;;;;;11.73;6.65;;;2.50;99.90;;;;;;4935399;29;20087;-74
2022/02/16 00:35:53;;;;;;;15.30;7.40;;;2.50;99.90;;;;;;4935071;29;20032;-74
2022/02/16 00:38:19;;;;;;;12.02;7.30;;;2.50;99.90;;;;;;4941238;29;20138;-74
2022/02/16 00:40:45;;;;;;;14.10;9.13;;;2.50;99.90;;;;;;4953783;28;20035;-74
2022/02/16 00:43:11;;;;;;;12.80;8.18;;;2.50;99.90;;;;;;4954252;28;20027;-74
2022/02/16 00:45:36;;;;;;;10.10;6.15;;;2.40;99.90;;;;;;4953342;28;20094;-74
2022/02/16 00:48:03;;;;;;;5.72;3.47;;;2.30;99.90;;;;;;4953936;28;20102;-74
2022/02/16 00:50:29;;;;;;;7.68;4.55;;;2.30;99.90;;;;;;4953608;28;20440;-74
2022/02/16 00:52:54;;;;;;;8.55;4.40;;;2.70;99.90;;;;;;4953620;28;20114;-74
2022/02/16 00:55:20;;;;;;;11.07;7.35;;;2.80;99.90;;;;;;4952646;28;20500;-74
2022/02/16 00:57:46;;;;;;;12.82;7.90;;;2.80;99.90;;;;;;4953318;28;20034;-74
2022/02/16 01:00:13;;;;;;;15.65;9.32;;;2.70;99.90;;;;;;4953841;28;20413;-74
2022/02/16 01:02:39;;;;;;;12.88;8.70;;;2.70;99.90;;;;;;4953647;28;20023;-74
2022/02/16 01:05:05;;;;;;;13.32;8.98;;;2.60;99.90;;;;;;4953559;28;20114;-74
2022/02/16 01:07:30;;;;;;;13.55;7.20;;;2.50;99.90;;;;;;4953397;28;20051;-74
2022/02/16 01:09:56;;;;;;;8.60;5.32;;;2.30;99.90;;;;;;4952808;28;20469;-74
2022/02/16 01:12:22;;;;;;;7.70;4.50;;;2.10;99.90;;;;;;4953242;28;20114;-74
2022/02/16 01:14:48;;;;;;;8.27;4.70;;;2.20;99.90;;;;;;4950755;28;20125;-74
2022/02/16 01:17:13;;;;;;;7.18;4.90;;;2.20;99.90;;;;;;4953204;28;20101;-74
2022/02/16 01:19:39;;;;;;;11.82;7.25;;;2.30;99.90;;;;;;4953247;28;20034;-74
2022/02/16 01:22:05;;;;;;;13.75;7.20;;;2.20;99.90;;;;;;4952335;28;20063;-74
2022/02/16 01:24:30;;;;;;;10.13;6.55;;;2.20;99.90;;;;;;4952972;28;20568;-74
2022/02/16 01:26:56;;;;;;;15.65;8.00;;;2.20;99.90;;;;;;4951795;28;20042;-74
2022/02/16 01:29:23;;;;;;;14.15;8.05;;;2.20;99.90;;;;;;4946084;28;20102;-74
2022/02/16 01:31:52;;;;;;;11.80;6.75;;;2.10;99.90;;;;;;4952049;29;20473;-74
2022/02/16 01:34:18;;;;;;;12.57;7.70;;;2.00;99.90;;;;;;4952596;28;20035;-74
2022/02/16 01:36:44;;;;;;;12.02;7.65;;;2.00;99.90;;;;;;4952572;28;20102;-74
2022/02/16 01:39:10;;;;;;;13.85;8.48;;;1.90;99.90;;;;;;4952378;28;20069;-74
2022/02/16 01:41:35;;;;;;;8.55;5.57;;;1.90;99.90;;;;;;4952769;28;20384;-74
2022/02/16 01:44:01;;;;;;;8.23;5.25;;;1.90;99.90;;;;;;4952366;28;20038;-74
2022/02/16 01:46:27;;;;;;;6.55;4.43;;;2.00;99.90;;;;;;4952365;28;20087;-74
2022/02/16 01:48:52;;;;;;;8.77;5.03;;;2.10;99.90;;;;;;4952586;28;20039;-74
2022/02/16 01:51:19;;;;;;;6.93;4.72;;;2.20;99.90;;;;;;4953179;28;20036;-74
2022/02/16 01:53:44;;;;;;;8.82;5.35;;;2.30;99.90;;;;;;4951523;28;20078;-75
2022/02/16 01:56:10;;;;;;;9.98;6.20;;;2.30;99.90;;;;;;4951482;28;20416;-74
2022/02/16 01:58:37;;;;;;;8.65;5.30;;;2.20;99.90;;;;;;4951768;28;20031;-74
2022/02/16 02:01:07;;;;;;;7.47;4.80;;;2.30;99.90;;;;;;4952886;28;20031;-74
2022/02/16 02:03:33;;;;;;;6.95;4.75;;;2.30;99.90;;;;;;4946970;28;20489;-74
2022/02/16 02:05:58;;;;;;;8.02;5.50;;;2.20;99.90;;;;;;4952642;28;20039;-73
2022/02/16 02:08:25;;;;;;;6.25;4.10;;;2.30;99.90;;;;;;4950471;28;20608;-74
2022/02/16 02:10:52;;;;;;;9.20;5.70;;;2.20;99.90;;;;;;4953254;28;20512;-74
2022/02/16 02:13:18;;;;;;;14.38;7.63;;;2.20;99.90;;;;;;4951683;28;20493;-74
2022/02/16 02:15:45;;;;;;;14.70;8.55;;;2.20;99.90;;;;;;4951926;28;20039;-74
2022/02/16 02:18:14;;;;;;;7.50;4.78;;;2.30;99.90;;;;;;4951303;28;20401;-73
2022/02/16 02:20:40;;;;;;;6.60;4.65;;;2.30;99.90;;;;;;4952618;28;20059;-74
2022/02/16 02:23:07;;;;;;;10.10;5.60;;;2.40;99.90;;;;;;4951852;28;20075;-74
2022/02/16 02:25:52;;;;;;;10.63;7.40;;;2.30;99.90;;;;;;4950391;28;20046;-73
2022/02/16 02:28:25;;;;;;;12.18;8.27;;;2.30;99.90;;;;;;4949065;29;20494;-74
2022/02/16 02:30:51;;;;;;;10.55;6.13;;;2.20;99.90;;;;;;4952514;28;20028;-74
2022/02/16 02:33:17;;;;;;;8.10;4.60;;;2.20;99.90;;;;;;4951572;28;20125;-74
2022/02/16 02:35:43;;;;;;;7.57;4.80;;;2.20;99.90;;;;;;4949075;28;20450;-75
2022/02/16 02:38:09;;;;;;;7.80;4.80;;;2.10;99.90;;;;;;4947686;28;20138;-74
2022/02/16 02:40:35;;;;;;;7.35;4.50;;;2.10;99.90;;;;;;4951882;28;20067;-74
2022/02/16 02:43:01;;;;;;;7.15;4.15;;;2.30;99.90;;;;;;4952735;28;20381;-74
2022/02/16 02:45:27;;;;;;;7.25;4.82;;;2.20;99.90;;;;;;4951144;28;20075;-74
2022/02/16 02:47:52;;;;;;;8.50;5.28;;;2.30;99.90;;;;;;4951720;29;20050;-74
2022/02/16 02:50:18;;;;;;;10.63;7.22;;;2.30;99.90;;;;;;4950828;28;20028;-74
2022/02/16 02:52:44;;;;;;;12.68;8.18;;;2.10;99.90;;;;;;4952362;28;20073;-74
2022/02/16 02:55:11;;;;;;;10.52;7.32;;;2.10;99.90;;;;;;4949243;28;20485;-74
2022/02/16 02:57:38;;;;;;;9.90;6.35;;;2.10;99.90;;;;;;4950844;28;20102;-74
2022/02/16 03:00:06;;;;;;;6.32;4.10;;;2.00;99.90;;;;;;4950803;28;20039;-74
2022/02/16 03:02:32;;;;;;;5.93;3.50;;;2.10;99.90;;;;;;4951551;29;20102;-74
2022/02/16 03:04:58;;;;;;;6.60;3.92;;;2.30;99.90;;;;;;4951353;28;20114;-74
2022/02/16 03:07:23;;;;;;;4.93;3.17;;;2.40;99.90;;;;;;4951656;28;20047;-74
2022/02/16 03:09:49;;;;;;;5.43;2.95;;;2.30;99.90;;;;;;4951604;29;20037;-74
2022/02/16 03:12:14;;;;;;;5.13;3.25;;;2.20;99.90;;;;;;4952749;28;20043;-74
2022/02/16 03:14:40;;;;;;;4.93;2.70;;;2.10;99.90;;;;;;4952223;28;20107;-74
2022/02/16 03:17:06;;;;;;;5.20;2.58;;;2.30;99.90;;;;;;4951239;28;20063;-74
2022/02/16 03:19:31;;;;;;;6.10;3.17;;;2.10;99.90;;;;;;4951813;28;20027;-74
2022/02/16 03:21:57;;;;;;;4.63;2.53;;;1.90;99.90;;;;;;4953751;28;20038;-74
2022/02/16 03:24:23;;;;;;;4.72;2.42;;;1.80;99.90;;;;;;4956005;28;20102;-74
2022/02/16 03:26:48;;;;;;;6.32;2.72;;;1.80;99.90;;;;;;4954359;28;20049;-74
2022/02/16 03:29:14;;;;;;;5.43;2.83;;;2.00;99.90;;;;;;4955694;28;20130;-74
2022/02/16 03:31:40;;;;;;;5.25;3.13;;;2.10;99.90;;;;;;4954759;28;20035;-74
2022/02/16 03:34:06;;;;;;;6.43;3.58;;;2.00;99.90;;;;;;4955367;28;20031;-74
2022/02/16 03:36:32;;;;;;;5.35;3.20;;;2.10;99.90;;;;;;4948164;28;20520;-74
2022/02/16 03:38:57;;;;;;;6.72;4.03;;;2.20;99.90;;;;;;4955164;28;20055;-74
2022/02/16 03:41:23;;;;;;;6.57;4.00;;;2.30;99.90;;;;;;4953757;28;20043;-74
2022/02/16 03:43:49;;;;;;;6.32;3.20;;;2.50;99.90;;;;;;4955398;28;20098;-74
2022/02/16 03:46:15;;;;;;;5.65;3.13;;;2.40;99.90;;;;;;4954100;28;20479;-74
2022/02/16 03:48:40;;;;;;;5.25;2.88;;;2.30;99.90;;;;;;4954506;28;20039;-74
2022/02/16 03:51:06;;;;;;;5.35;3.67;;;2.20;99.90;;;;;;4955054;28;20094;-74
2022/02/16 03:53:32;;;;;;;6.20;3.42;;;2.10;99.90;;;;;;4955354;28;20561;-74
2022/02/16 03:55:58;;;;;;;5.25;3.10;;;2.20;99.90;;;;;;4954763;28;20039;-74
2022/02/16 03:58:23;;;;;;;5.03;3.00;;;2.10;99.90;;;;;;4953816;28;20039;-73
2022/02/16 04:00:49;;;;;;;10.98;6.07;;;1.90;99.90;;;;;;4953344;28;20469;-73
2022/02/16 04:03:15;;;;;;;7.40;3.75;;;1.80;99.90;;;;;;4948717;28;20552;-73
2022/02/16 04:05:42;;;;;;;6.05;3.95;;;1.80;99.90;;;;;;4947762;28;20992;-73
2022/02/16 04:08:09;;;;;;;6.22;3.75;;;1.80;99.90;;;;;;4947285;28;20051;-73
2022/02/16 04:10:35;;;;;;;5.93;3.13;;;2.00;99.90;;;;;;4947665;28;20914;-73
2022/02/16 04:13:01;;;;;;;8.25;4.60;;;1.90;99.90;;;;;;4947343;28;20093;-73
2022/02/16 04:15:26;;;;;;;8.50;5.32;;;1.90;99.90;;;;;;4946341;28;20565;-73
2022/02/16 04:17:52;;;;;;;11.40;6.60;;;1.80;99.90;;;;;;4961474;28;20129;-73
2022/02/16 04:20:18;;;;;;;12.50;8.43;;;1.70;99.90;;;;;;4949963;28;20031;-73
2022/02/16 04:22:45;;;;;;;10.55;6.93;;;1.70;99.90;;;;;;4950606;28;20058;-74
2022/02/16 04:25:12;;;;;;;9.15;4.75;;;1.50;99.90;;;;;;4950494;28;20047;-73
2022/02/16 04:27:37;;;;;;;8.32;4.35;;;1.40;99.90;;;;;;4943512;28;20087;-74
2022/02/16 04:30:05;;;;;;;8.25;4.40;;;1.50;99.90;;;;;;4964463;28;20437;-74
2022/02/16 04:32:31;;;;;;;9.70;6.32;;;1.60;99.90;;;;;;4949082;28;20042;-73
2022/02/16 04:34:57;;;;;;;9.77;5.63;;;1.70;99.90;;;;;;4949139;28;20405;-74
2022/02/16 04:37:22;;;;;;;9.30;6.25;;;1.80;99.90;;;;;;4947741;28;20125;-74
2022/02/16 04:39:48;;;;;;;13.85;8.05;;;1.70;99.90;;;;;;4951508;28;20474;-74
2022/02/16 04:42:14;;;;;;;12.82;8.25;;;1.60;99.90;;;;;;4950797;28;20232;-73
2022/02/16 04:44:40;;;;;;;8.80;5.40;;;1.60;99.90;;;;;;4950591;28;20036;-73
2022/02/16 04:47:06;;;;;;;6.20;4.07;;;1.50;99.90;;;;;;4954106;28;20991;-74
2022/02/16 04:49:32;;;;;;;6.70;4.18;;;1.40;99.90;;;;;;4952979;28;20026;-74
2022/02/16 04:51:57;;;;;;;7.63;4.50;;;1.70;99.90;;;;;;4949704;28;20697;-74
2022/02/16 04:54:23;;;;;;;10.05;6.20;;;2.00;99.90;;;;;;4950448;28;20050;-73
2022/02/16 04:56:49;;;;;;;9.13;5.90;;;1.80;99.90;;;;;;4950181;28;20084;-73
2022/02/16 04:59:15;;;;;;;11.43;5.55;;;1.60;99.90;;;;;;4947802;28;20516;-73
2022/02/16 05:01:44;;;;;;;8.70;5.53;;;1.70;99.90;;;;;;4946945;28;20118;-74
2022/02/16 05:04:10;;;;;;;6.55;4.20;;;1.60;99.90;;;;;;4948147;28;20475;-73
2022/02/16 05:06:37;;;;;;;7.78;3.90;;;1.60;99.90;;;;;;4947328;28;20039;-73
2022/02/16 05:09:07;;;;;;;6.95;4.38;;;1.70;99.90;;;;;;4948866;28;20167;-74
2022/02/16 05:11:33;;;;;;;6.32;3.70;;;1.80;99.90;;;;;;4949586;28;20031;-74
2022/02/16 05:13:59;;;;;;;6.88;4.25;;;1.70;99.90;;;;;;4946539;28;20954;-73
2022/02/16 05:16:24;;;;;;;6.97;4.50;;;1.60;99.90;;;;;;4950522;28;20074;-74
2022/02/16 05:18:50;;;;;;;7.00;4.07;;;1.70;99.90;;;;;;4948752;28;20031;-74
2022/02/16 05:21:16;;;;;;;16.92;5.10;;;1.70;99.90;;;;;;4951300;28;20069;-74
2022/02/16 05:23:42;;;;;;;6.72;3.90;;;1.80;99.90;;;;;;4942909;28;20043;-73
2022/02/16 05:26:09;;;;;;;8.75;5.70;;;1.70;99.90;;;;;;4942769;28;20110;-74
2022/02/16 05:28:35;;;;;;;11.65;6.68;;;1.50;99.90;;;;;;4944312;28;20067;-74
2022/02/16 05:31:00;;;;;;;11.30;6.88;;;1.30;99.90;;;;;;4951065;28;20059;-74
2022/02/16 05:33:26;;;;;;;10.85;6.95;;;1.30;99.90;;;;;;4946498;28;20042;-74
2022/02/16 05:35:52;;;;;;;7.95;5.15;;;1.20;99.90;;;;;;4945966;28;20035;-74
2022/02/16 05:38:18;;;;;;;12.10;7.70;;;1.10;99.90;;;;;;4942008;28;20078;-74
2022/02/16 05:40:44;;;;;;;10.43;7.35;;;1.20;99.90;;;;;;4945354;28;20053;-74
2022/02/16 05:43:12;;;;;;;11.43;6.75;;;1.20;99.90;;;;;;4945017;28;20039;-74
2022/02/16 05:45:38;;;;;;;11.02;7.43;;;1.20;99.90;;;;;;4945690;28;20035;-74
2022/02/16 05:48:05;;;;;;;9.95;6.72;;;1.20;99.90;;;;;;4945416;28;20547;-74
2022/02/16 05:50:31;;;;;;;10.05;6.50;;;1.20;99.90;;;;;;4947138;28;20137;-74
2022/02/16 05:52:57;;;;;;;10.18;6.20;;;1.20;99.90;;;;;;4941921;28;20409;-74
2022/02/16 05:55:22;;;;;;;7.03;3.65;;;1.30;99.90;;;;;;4947383;28;20039;-74
2022/02/16 05:57:48;;;;;;;6.28;3.58;;;1.20;99.90;;;;;;4944758;28;20063;-73
2022/02/16 06:00:14;;;;;;;7.60;4.22;;;1.50;99.90;;;;;;4955790;28;20104;-73
2022/02/16 06:02:40;;;;;;;9.55;4.93;;;1.60;99.90;;;;;;4945483;28;20114;-74
2022/02/16 06:05:07;;;;;;;9.90;5.38;;;1.50;99.90;;;;;;4944781;28;20046;-74
2022/02/16 06:07:32;;;;;;;9.45;4.90;;;1.40;99.90;;;;;;4946515;28;20070;-74
2022/02/16 06:09:58;;;;;;;7.20;4.65;;;1.40;99.90;;;;;;4945120;28;20452;-73
2022/02/16 06:12:24;;;;;;;5.72;3.85;;;1.30;99.90;;;;;;4945595;28;20039;-73
2022/02/16 06:14:50;;;;;;;6.90;4.35;;;1.30;99.90;;;;;;4944003;28;20118;-73
2022/02/16 06:17:16;;;;;;;4.32;2.40;;;1.30;99.90;;;;;;4945308;28;20035;-73
2022/02/16 06:19:41;;;;;;;5.72;3.28;;;1.30;99.90;;;;;;4943072;28;20050;-74
2022/02/16 06:22:08;;;;;;;4.40;2.65;;;1.30;99.90;;;;;;4944191;28;20628;-73
2022/02/16 06:24:34;;;;;;;6.88;3.92;;;1.30;99.90;;;;;;4944144;28;20031;-73
2022/02/16 06:27:00;;;;;;;5.85;3.78;;;1.50;99.90;;;;;;4942407;28;20386;-73
2022/02/16 06:29:25;;;;;;;6.00;3.45;;;1.60;99.90;;;;;;4943617;28;20059;-73
2022/02/16 06:31:51;;;;;;;7.95;3.88;;;1.60;99.90;;;;;;4944448;28;20050;-74
2022/02/16 06:34:17;;;;;;;9.85;5.03;;;1.50;99.90;;;;;;4945205;28;20035;-74
2022/02/16 06:36:43;;;;;;;8.52;4.85;;;1.50;99.90;;;;;;4944833;28;20086;-73
2022/02/16 06:39:08;;;;;;;7.85;4.75;;;1.30;99.90;;;;;;4944823;28;20047;-74
2022/02/16 06:41:35;;;;;;;9.32;5.32;;;1.30;99.90;;;;;;4944522;28;20656;-74
2022/02/16 06:44:00;;;;;;;11.68;7.10;;;1.30;99.90;;;;;;4944378;28;20039;-73
2022/02/16 06:46:26;;;;;;;11.07;7.13;;;1.30;99.90;;;;;;4943770;28;20646;-73
2022/02/16 06:48:52;;;;;;;9.05;5.70;;;1.30;99.90;;;;;;4944603;28;20046;-73
2022/02/16 06:51:18;;;;;;;9.68;6.05;;;1.30;99.90;;;;;;4944155;28;20046;-73
2022/02/16 06:53:45;;;;;;;7.53;3.97;;;1.30;99.90;;;;;;4944306;28;20182;-73
2022/02/16 06:56:12;;;;;;;5.95;3.72;;;1.40;99.90;;;;;;4944219;28;20031;-73
2022/02/16 06:58:38;;;;;;;7.18;3.80;;;1.60;99.90;;;;;;4944291;28;20477;-73
2022/02/16 07:01:03;;;;;;;7.35;4.60;;;1.70;99.90;;;;;;4943820;28;20042;-73
2022/02/16 07:03:29;;;;;;;4.85;3.00;;;1.60;99.90;;;;;;4942732;28;20035;-74
2022/02/16 07:05:55;;;;;;;6.60;3.95;;;1.80;99.90;;;;;;4944488;28;20046;-74
2022/02/16 07:08:21;;;;;;;6.32;3.35;;;1.80;99.90;;;;;;4943026;28;20043;-73
2022/02/16 07:10:47;;;;;;;6.25;3.65;;;1.80;99.90;;;;;;4944869;28;20417;-74
2022/02/16 07:13:13;;;;;;;8.13;5.20;;;1.80;99.90;;;;;;4938402;28;20494;-73
2022/02/16 07:15:39;;;;;;;9.52;5.97;;;1.80;99.90;;;;;;4959929;28;20070;-73
2022/02/16 07:18:05;;;;;;;9.85;6.47;;;1.70;99.90;;;;;;4943870;28;20031;-74
2022/02/16 07:20:32;;;;;;;7.00;4.55;;;1.70;99.90;;;;;;4941299;28;20050;-74
2022/02/16 07:22:58;;;;;;;7.40;4.40;;;1.60;99.90;;;;;;4943936;28;20039;-74
2022/02/16 07:25:25;;;;;;;10.10;4.90;;;1.90;99.90;;;;;;4946758;28;20767;-74
2022/02/16 07:27:51;;;;;;;9.15;3.55;;;2.10;99.90;;;;;;4948290;28;20043;-74
2022/02/16 07:30:17;;;;;;;7.10;4.88;;;2.20;99.90;;;;;;4949529;28;20040;-75
2022/02/16 07:32:43;;;;;;;9.88;5.82;;;2.20;99.90;;;;;;4950055;28;20034;-73
2022/02/16 07:35:11;;;;;;;10.23;7.10;;;1.90;99.90;;;;;;4944162;28;20062;-74
2022/02/16 07:37:37;;;;;;;9.82;6.45;;;1.70;99.90;;;;;;4945720;28;20042;-74
2022/02/16 07:40:04;;;;;;;11.68;6.55;;;1.60;99.90;;;;;;4944094;28;20062;-74
2022/02/16 07:42:30;;;;;;;12.10;8.02;;;1.60;99.90;;;;;;4945752;28;20055;-74
2022/02/16 07:44:56;;;;;;;12.80;7.85;;;1.60;99.90;;;;;;4944000;28;20046;-74
2022/02/16 07:47:23;;;;;;;10.85;7.43;;;1.70;99.90;;;;;;4944984;28;20027;-74
2022/02/16 07:49:49;;;;;;;11.25;7.53;;;1.70;99.90;;;;;;4944473;28;20147;-74
2022/02/16 07:52:14;;;;;;;10.60;6.70;;;1.70;99.90;;;;;;4950664;28;20059;-74
2022/02/16 07:54:40;;;;;;;11.55;6.53;;;1.60;99.90;;;;;;4944931;28;20113;-74
2022/02/16 07:57:06;;;;;;;9.40;6.32;;;1.60;99.90;;;;;;4943940;28;20505;-74
2022/02/16 07:59:32;;;;;;;10.07;6.95;;;1.80;99.90;;;;;;4945255;29;20049;-74
2022/02/16 08:01:58;;;;;;;13.05;7.15;;;1.70;99.90;;;;;;4944896;28;20129;-74
2022/02/16 08:04:24;;;;;;;10.85;6.30;;;1.70;99.90;;;;;;4944411;28;20050;-74
2022/02/16 08:06:50;;;;;;;9.30;6.28;;;1.60;99.90;;;;;;4944602;28;20063;-74
2022/02/16 08:09:16;;;;;;;10.35;6.82;;;1.70;99.90;;;;;;4948031;28;20544;-74
2022/02/16 08:11:43;;;;;;;10.18;6.10;;;1.80;99.90;;;;;;4948027;28;20042;-74
2022/02/16 08:14:09;;;;;;;10.98;6.63;;;1.80;99.90;;;;;;4947904;28;20039;-74
2022/02/16 08:16:36;;;;;;;8.60;5.88;;;1.80;99.90;;;;;;4949446;28;20045;-73
2022/02/16 08:19:03;;;;;;;8.05;5.43;;;1.90;99.90;;;;;;4947866;28;20106;-73
2022/02/16 08:21:29;;;;;;;7.78;4.50;;;1.90;99.90;;;;;;4945684;28;20023;-73
2022/02/16 08:23:55;;;;;;;6.68;4.55;;;1.90;99.90;;;;;;4945275;28;20039;-74
2022/02/16 08:26:21;;;;;;;7.55;4.53;;;2.00;99.90;;;;;;4954225;28;20073;-74
2022/02/16 08:28:46;;;;;;;7.55;4.55;;;1.90;99.90;;;;;;4951794;28;20063;-74
2022/02/16 08:31:13;;;;;;;9.35;5.75;;;2.00;99.90;;;;;;4952672;28;20461;-73
2022/02/16 08:33:38;;;;;;;9.80;5.45;;;2.00;99.90;;;;;;4943799;28;20133;-72
2022/02/16 08:36:05;;;;;;;7.93;4.78;;;1.90;99.90;;;;;;4947414;28;20564;-73
2022/02/16 08:38:31;;;;;;;8.90;5.45;;;1.90;99.90;;;;;;4950308;28;20162;-73
2022/02/16 08:40:57;;;;;;;7.38;4.53;;;1.90;99.90;;;;;;4946408;28;20121;-73
2022/02/16 08:43:23;;;;;;;8.70;4.50;;;1.90;99.90;;;;;;4944346;28;20361;-73
2022/02/16 08:45:49;;;;;;;8.25;5.03;;;2.00;99.90;;;;;;4960417;28;20093;-73
2022/02/16 08:48:14;;;;;;;6.38;4.25;;;2.00;99.90;;;;;;4946567;28;20042;-73
2022/02/16 08:50:40;;;;;;;7.53;3.83;;;2.00;99.90;;;;;;4945889;28;20106;-73
2022/02/16 08:53:06;;;;;;;7.05;4.57;;;2.00;99.90;;;;;;4953279;28;20137;-74
2022/02/16 08:55:32;;;;;;;7.43;4.68;;;2.00;99.90;;;;;;4954682;28;20039;-74
2022/02/16 08:57:58;;;;;;;9.90;6.25;;;2.10;99.90;;;;;;4942480;28;20051;-74
2022/02/16 09:00:24;;;;;;;9.07;5.20;;;2.10;99.90;;;;;;4943360;28;20095;-73
2022/02/16 09:02:51;;;;;;;10.05;5.80;;;2.20;99.90;;;;;;4944899;28;20039;-73
2022/02/16 09:05:17;;;;;;;10.48;6.45;;;2.20;99.90;;;;;;4943368;28;20094;-73
2022/02/16 09:07:43;;;;;;;10.38;6.90;;;2.10;99.90;;;;;;4942421;28;20564;-73
2022/02/16 09:10:10;;;;;;;11.18;6.43;;;2.10;99.90;;;;;;4945913;28;20031;-75
2022/02/16 09:12:36;;;;;;;6.95;4.53;;;2.20;99.90;;;;;;4944968;28;20035;-75
2022/02/16 09:15:03;;;;;;;8.57;5.60;;;2.40;99.90;;;;;;4943811;28;20129;-73
2022/02/16 09:17:29;;;;;;;7.82;5.13;;;2.60;99.90;;;;;;4943344;28;20973;-73
2022/02/16 09:19:56;;;;;;;6.35;4.22;;;2.60;99.90;;;;;;4943548;28;20039;-73
2022/02/16 09:22:22;;;;;;;7.15;3.85;;;2.70;99.90;;;;;;4945398;28;20114;-73
2022/02/16 09:24:49;;;;;;;7.78;3.78;;;2.80;99.90;;;;;;4939891;28;20031;-73
2022/02/16 09:27:16;;;;;;;5.85;3.80;;;2.90;99.90;;;;;;4934818;28;20039;-73
2022/02/16 09:29:42;;;;;;;14.82;9.68;;;2.90;99.90;;;;;;4940532;28;20035;-72
2022/02/16 09:32:08;;;;;;;9.63;5.97;;;3.00;99.90;;;;;;4959701;28;20042;-72
2022/02/16 09:34:34;;;;;;;7.75;4.80;;;3.20;99.90;;;;;;4945043;28;20039;-72
2022/02/16 09:37:00;;;;;;;7.55;4.70;;;3.20;99.90;;;;;;4943896;28;20038;-72
2022/02/16 09:39:25;;;;;;;8.90;6.03;;;3.20;99.90;;;;;;4944534;28;20130;-72
2022/02/16 09:41:51;;;;;;;7.85;4.70;;;3.30;99.90;;;;;;4937924;28;20062;-72
2022/02/16 09:44:32;;;;;;;8.50;5.43;;;3.40;99.90;;;;;;4938477;28;20043;-73
2022/02/16 09:46:59;;;;;;;10.43;6.65;;;3.50;99.90;;;;;;4936994;28;20035;-72
2022/02/16 09:49:25;;;;;;;9.45;6.30;;;3.60;99.90;;;;;;4941406;28;20058;-72
2022/02/16 09:51:51;;;;;;;10.40;5.70;;;3.70;99.90;;;;;;4945058;28;20043;-72
2022/02/16 09:54:16;;;;;;;11.68;6.55;;;3.70;99.90;;;;;;4940415;28;20504;-72
2022/02/16 09:56:44;;;;;;;9.07;5.88;;;3.70;99.90;;;;;;4941605;28;20042;-71
2022/02/16 09:59:13;;;;;;;9.02;5.60;;;3.90;99.90;;;;;;4943783;28;20106;-72
2022/02/16 10:01:58;;;;;;;9.02;5.53;;;3.90;99.90;;;;;;4944719;28;20054;-72
2022/02/16 10:04:28;;;;;;;8.32;5.15;;;4.00;99.90;;;;;;4938415;28;20377;-72
2022/02/16 10:06:55;;;;;;;7.45;4.68;;;4.10;99.90;;;;;;4935394;28;20497;-73
2022/02/16 10:09:35;;;;;;;8.15;5.43;;;4.20;99.90;;;;;;4936461;28;20206;-72
2022/02/16 10:12:06;;;;;;;7.70;4.65;;;4.30;99.90;;;;;;4934051;28;20035;-72
2022/02/16 10:14:42;;;;;;;7.85;4.75;;;4.30;99.90;;;;;;4943598;28;20035;-72
2022/02/16 10:17:22;;;;;;;7.00;4.13;;;4.40;99.90;;;;;;4942897;28;20038;-72
2022/02/16 10:20:02;;;;;;;6.95;3.58;;;4.50;99.90;;;;;;4934610;28;20026;-73
2022/02/16 10:22:49;;;;;;;6.68;3.83;;;4.60;99.90;;;;;;4943579;28;20102;-73
2022/02/16 10:25:20;;;;;;;6.57;3.38;;;4.70;99.90;;;;;;4944699;28;20659;-73
2022/02/16 10:28:06;;;;;;;5.38;3.10;;;4.70;99.90;;;;;;4944021;28;20037;-73
2022/02/16 10:30:32;;;;;;;6.28;3.22;;;4.80;99.90;;;;;;4943015;28;20445;-72
2022/02/16 10:33:18;;;;;;;5.70;3.33;;;4.90;99.90;;;;;;4958543;28;20453;-72
2022/02/16 10:35:45;;;;;;;4.78;2.60;;;5.10;99.90;;;;;;4944556;28;20728;-72
2022/02/16 10:38:12;;;;;;;4.18;2.80;;;5.10;99.90;;;;;;4943304;28;20505;-73
2022/02/16 10:40:38;;;;;;;4.97;3.17;;;5.10;99.90;;;;;;4944290;28;20031;-72
2022/02/16 10:43:03;;;;;;;4.70;2.75;;;5.20;99.90;;;;;;4943169;28;20035;-72
2022/02/16 10:45:31;;;;;;;5.88;2.75;;;5.30;99.90;;;;;;4943641;28;20035;-72
2022/02/16 10:48:03;;;;;;;5.43;2.17;;;5.50;99.90;;;;;;4944093;28;20058;-72
2022/02/16 10:50:34;;;;;;;4.57;2.67;;;5.50;99.90;;;;;;4942091;28;20046;-73
2022/02/16 10:53:03;;;;;;;9.63;6.47;;;5.50;99.90;;;;;;4943382;28;20032;-73
2022/02/16 10:55:55;;;;;;;4.28;2.20;;;5.70;99.90;;;;;;4943285;28;20078;-73
2022/02/16 10:58:23;;;;;;;5.20;2.47;;;5.60;99.70;;;;;;4941012;28;20425;-72
2022/02/16 11:00:55;;;;;;;6.05;2.13;;;5.60;99.90;;;;;;4940696;28;20138;-72
2022/02/16 11:03:25;;;;;;;4.60;2.60;;;5.70;99.90;;;;;;4940815;28;20065;-74
2022/02/16 11:05:54;;;;;;;7.68;3.00;;;5.60;99.40;;;;;;4940655;28;20154;-72
2022/02/16 11:08:22;;;;;;;15.13;6.68;;;5.60;98.90;;;;;;4931069;28;20638;-74
2022/02/16 11:10:48;;;;;;;22.23;10.77;;;5.60;99.50;;;;;;4936223;28;20090;-74
2022/02/16 11:13:21;;;;;;;7.90;5.13;;;5.80;99.60;;;;;;4936816;28;20031;-75
2022/02/16 11:15:51;;;;;;;5.25;2.88;;;5.80;99.60;;;;;;4943986;28;20138;-74
2022/02/16 11:18:22;;;;;;;4.90;2.60;;;5.90;99.30;;;;;;4943714;28;20470;-74
2022/02/16 11:21:11;;;;;;;4.97;2.20;;;5.90;98.90;;;;;;4943378;28;20028;-72
2022/02/16 11:23:40;;;;;;;6.82;2.88;;;5.80;98.40;;;;;;4943115;28;20091;-72
2022/02/16 11:26:28;;;;;;;5.75;2.30;;;5.80;98.30;;;;;;4944551;28;20082;-73
2022/02/16 11:28:54;;;;;;;3.85;1.80;;;5.90;98.00;;;;;;4943310;28;20098;-74
2022/02/16 11:31:36;;;;;;;3.72;2.03;;;6.00;97.60;;;;;;4944174;28;20027;-72
2022/02/16 11:34:22;;;;;;;3.40;1.55;;;6.10;97.30;;;;;;4946134;28;20134;-72
2022/02/16 11:37:02;;;;;;;5.05;2.05;;;6.10;96.40;;;;;;4943507;28;20055;-72
2022/02/16 11:39:50;;;;;;;3.47;2.00;;;6.20;97.10;;;;;;4928210;29;20155;-72
2022/02/16 11:42:40;;;;;;;3.67;2.08;;;6.20;97.40;;;;;;4919165;29;20068;-72
2022/02/16 11:45:09;;;;;;;3.47;1.83;;;6.20;97.40;;;;;;4902821;29;20035;-72
2022/02/16 11:47:45;;;;;;;3.60;1.85;;;6.20;96.70;;;;;;4915177;28;20047;-72
2022/02/16 11:50:13;;;;;;;4.60;1.90;;;6.20;97.40;;;;;;4918836;29;20134;-74
2022/02/16 11:52:57;;;;;;;5.97;2.33;;;6.20;97.50;;;;;;4914138;28;20394;-74
2022/02/16 11:55:24;;;;;;;4.33;2.03;;;6.20;96.90;;;;;;4901065;29;20036;-72
2022/02/16 11:57:49;;;;;;;3.53;2.15;;;6.30;97.20;;;;;;4913790;29;20028;-72
2022/02/16 12:00:15;;;;;;;3.10;1.65;;;6.30;97.50;;;;;;4911698;29;20050;-74
2022/02/16 12:02:56;;;;;;;4.47;2.42;;;6.30;96.70;;;;;;4917902;29;20135;-75
2022/02/16 12:05:45;;;;;;;3.60;1.80;;;6.30;97.30;;;;;;4925528;29;20039;-73
2022/02/16 12:08:32;;;;;;;4.28;1.98;;;6.40;97.10;;;;;;4924101;29;20090;-73
2022/02/16 12:11:12;;;;;;;4.00;1.50;;;6.30;97.30;;;;;;4927802;29;20383;-73
2022/02/16 12:13:41;;;;;;;4.43;2.13;;;6.10;96.20;;;;;;4926718;29;20434;-73
2022/02/16 12:16:10;;;;;;;3.00;1.38;;;6.10;96.00;;;;;;4927264;29;20050;-73
2022/02/16 12:18:37;;;;;;;3.70;1.80;;;6.10;95.80;;;;;;4927273;29;20039;-74
2022/02/16 12:21:05;;;;;;;3.60;1.63;;;6.20;96.00;;;;;;4921164;29;20035;-74
2022/02/16 12:23:37;;;;;;;4.10;2.00;;;6.20;96.30;;;;;;4925879;29;20110;-74
2022/02/16 12:26:14;;;;;;;4.18;2.22;;;6.20;96.30;;;;;;4925527;29;20039;-74
2022/02/16 12:28:59;;;;;;;3.90;1.92;;;6.20;96.60;;;;;;4926746;29;20111;-74
2022/02/16 12:31:30;;;;;;;3.90;2.00;;;6.30;96.60;;;;;;4926849;29;20123;-74
2022/02/16 12:34:05;;;;;;;3.70;1.85;;;6.40;96.70;;;;;;4924400;29;20032;-74
2022/02/16 12:36:32;;;;;;;4.78;2.50;;;6.30;96.10;;;;;;4925349;29;20191;-73
2022/02/16 12:39:00;;;;;;;4.15;2.00;;;6.30;96.30;;;;;;4936580;28;20055;-73
2022/02/16 12:41:27;;;;;;;6.50;3.92;;;6.30;96.40;;;;;;4945339;28;20041;-75
2022/02/16 12:44:00;;;;;;;5.18;2.85;;;6.40;97.10;;;;;;4945393;28;20078;-74
2022/02/16 12:46:33;;;;;;;6.35;3.45;;;6.40;97.00;;;;;;4945664;28;20120;-74
2022/02/16 12:48:59;;;;;;;7.10;3.03;;;6.50;96.70;;;;;;4947003;28;20384;-74
2022/02/16 12:51:36;;;;;;;7.38;3.15;;;6.50;97.10;;;;;;4945958;28;20097;-73
2022/02/16 12:54:08;;;;;;;4.72;2.80;;;6.50;97.00;;;;;;4945466;28;20039;-73
2022/02/16 12:56:53;;;;;;;5.35;2.42;;;6.60;97.00;;;;;;4944764;28;20051;-74
2022/02/16 12:59:23;;;;;;;5.22;2.58;;;6.60;96.90;;;;;;4945459;28;20081;-73